Andover, New York
Current Conditions -  °F | °C
As of 6:56 AM on Thursday 29 Jan 2015 (Local Time) from KELZ Reporting Station
Broken Clouds Broken Clouds  
Wind Chill: -15°   Ceiling: 10000
Heat Index: -8°   Visibility: 10mi
Dew Point: -19°   Wind: 10mph
Humidity: 43%   Direction: 150°SSE
Pressure: 30.07"   Gusts: NA
Location:  42.16°N, 77.8°W
Report Text: KELZ 291156Z AUTO 15009KT 10SM BKN100 BKN120 M08/M19 A3007 RMK AO2 SLP219 T10831189 11083 21133 58026
Loading
Personal Weather Stations






























Interactive Weather Map New forecast layout! Learn more

10-Day Weather Forecast

Advertisements
Track Severe Weather on mobile